sensor_id;sensor_type;location;lat;lon;timestamp;pressure;altitude;pressure_sealevel;temperature;humidity
1029;BME280;503;48.120;11.488;2022-08-19T00:00:12;94927.97;;;22.60;68.31
1029;BME280;503;48.120;11.488;2022-08-19T00:02:40;94920.19;;;22.29;68.52
1029;BME280;503;48.120;11.488;2022-08-19T00:05:06;94951.16;;;22.28;69.50
1029;BME280;503;48.120;11.488;2022-08-19T00:07:32;94950.44;;;22.60;69.25
1029;BME280;503;48.120;11.488;2022-08-19T00:09:58;94926.03;;;22.53;69.10
1029;BME280;503;48.120;11.488;2022-08-19T00:12:23;94952.78;;;22.83;68.41
1029;BME280;503;48.120;11.488;2022-08-19T00:14:48;94935.72;;;22.86;67.70
1029;BME280;503;48.120;11.488;2022-08-19T00:17:13;94940.78;;;23.02;66.56
1029;BME280;503;48.120;11.488;2022-08-19T00:19:39;94944.19;;;22.35;68.47
1029;BME280;503;48.120;11.488;2022-08-19T00:22:05;94926.03;;;22.49;68.12
1029;BME280;503;48.120;11.488;2022-08-19T00:24:31;94907.75;;;22.11;68.87
1029;BME280;503;48.120;11.488;2022-08-19T00:26:57;94909.34;;;22.33;69.24
1029;BME280;503;48.120;11.488;2022-08-19T00:29:24;94910.56;;;22.68;68.25
1029;BME280;503;48.120;11.488;2022-08-19T00:31:51;94905.94;;;22.93;67.54
1029;BME280;503;48.120;11.488;2022-08-19T00:34:20;94901.19;;;22.26;68.39
1029;BME280;503;48.120;11.488;2022-08-19T00:36:47;94913.41;;;21.73;70.25
1029;BME280;503;48.120;11.488;2022-08-19T00:39:14;94910.91;;;22.34;69.52
1029;BME280;503;48.120;11.488;2022-08-19T00:41:40;94912.06;;;22.33;69.73
1029;BME280;503;48.120;11.488;2022-08-19T00:44:13;94914.03;;;22.54;68.08
1029;BME280;503;48.120;11.488;2022-08-19T00:46:44;94902.81;;;22.91;67.60
1029;BME280;503;48.120;11.488;2022-08-19T00:49:13;94896.59;;;22.80;67.31
1029;BME280;503;48.120;11.488;2022-08-19T00:51:41;94883.03;;;22.69;67.38
1029;BME280;503;48.120;11.488;2022-08-19T00:54:08;94874.94;;;22.91;66.30
1029;BME280;503;48.120;11.488;2022-08-19T00:56:34;94867.94;;;22.57;67.26
1029;BME280;503;48.120;11.488;2022-08-19T00:59:01;94871.03;;;22.67;67.36
1029;BME280;503;48.120;11.488;2022-08-19T01:01:27;94871.81;;;22.60;67.16
1029;BME280;503;48.120;11.488;2022-08-19T01:03:53;94882.63;;;22.31;68.68
1029;BME280;503;48.120;11.488;2022-08-19T01:06:18;94888.84;;;22.75;67.34
1029;BME280;503;48.120;11.488;2022-08-19T01:08:44;94879.94;;;22.64;66.97
1029;BME280;503;48.120;11.488;2022-08-19T01:11:09;94874.50;;;22.28;68.01
1029;BME280;503;48.120;11.488;2022-08-19T01:13:35;94868.72;;;22.44;67.53
1029;BME280;503;48.120;11.488;2022-08-19T01:16:04;94864.00;;;22.09;69.25
1029;BME280;503;48.120;11.488;2022-08-19T01:18:31;94884.66;;;21.44;71.88
1029;BME280;503;48.120;11.488;2022-08-19T01:21:00;94888.06;;;21.34;72.25
1029;BME280;503;48.120;11.488;2022-08-19T01:23:27;94877.91;;;20.58;75.81
1029;BME280;503;48.120;11.488;2022-08-19T01:26:09;94880.56;;;21.06;74.24
1029;BME280;503;48.120;11.488;2022-08-19T01:28:35;94883.91;;;21.47;72.72
1029;BME280;503;48.120;11.488;2022-08-19T01:31:02;94888.50;;;21.43;72.30
1029;BME280;503;48.120;11.488;2022-08-19T01:33:27;94896.41;;;21.80;70.99
1029;BME280;503;48.120;11.488;2022-08-19T01:36:06;94900.44;;;21.31;72.17
1029;BME280;503;48.120;11.488;2022-08-19T01:38:36;94914.63;;;21.94;70.68
1029;BME280;503;48.120;11.488;2022-08-19T01:41:02;94909.69;;;22.14;69.38
1029;BME280;503;48.120;11.488;2022-08-19T01:43:27;94907.63;;;21.82;70.59
1029;BME280;503;48.120;11.488;2022-08-19T01:45:52;94910.91;;;22.27;69.19
1029;BME280;503;48.120;11.488;2022-08-19T01:48:18;94918.28;;;22.62;68.06
1029;BME280;503;48.120;11.488;2022-08-19T01:50:44;94925.28;;;22.92;67.29
1029;BME280;503;48.120;11.488;2022-08-19T01:53:11;94929.56;;;23.14;66.37
1029;BME280;503;48.120;11.488;2022-08-19T01:55:39;94926.78;;;23.28;65.82
1029;BME280;503;48.120;11.488;2022-08-19T01:58:08;94924.47;;;23.38;65.54
1029;BME280;503;48.120;11.488;2022-08-19T02:00:35;94917.50;;;23.37;64.45
1029;BME280;503;48.120;11.488;2022-08-19T02:03:01;94908.53;;;23.43;64.39
1029;BME280;503;48.120;11.488;2022-08-19T02:05:26;94910.09;;;23.51;63.88
1029;BME280;503;48.120;11.488;2022-08-19T02:07:55;94909.31;;;23.51;64.22
1029;BME280;503;48.120;11.488;2022-08-19T02:10:21;94917.06;;;23.63;63.68
1029;BME280;503;48.120;11.488;2022-08-19T02:12:48;94910.84;;;23.55;63.34
1029;BME280;503;48.120;11.488;2022-08-19T02:15:14;94916.25;;;23.59;63.36
1029;BME280;503;48.120;11.488;2022-08-19T02:17:40;94923.63;;;23.62;62.80
1029;BME280;503;48.120;11.488;2022-08-19T02:20:06;94935.25;;;23.73;62.57
1029;BME280;503;48.120;11.488;2022-08-19T02:22:33;94929.81;;;23.70;62.54
1029;BME280;503;48.120;11.488;2022-08-19T02:24:58;94929.44;;;23.68;62.59
1029;BME280;503;48.120;11.488;2022-08-19T02:27:24;94941.84;;;23.69;62.69
1029;BME280;503;48.120;11.488;2022-08-19T02:29:50;94944.19;;;23.67;62.33
1029;BME280;503;48.120;11.488;2022-08-19T02:32:16;94936.06;;;23.56;62.57
1029;BME280;503;48.120;11.488;2022-08-19T02:34:44;94938.41;;;23.50;62.43
1029;BME280;503;48.120;11.488;2022-08-19T02:37:10;94934.50;;;23.55;62.22
1029;BME280;503;48.120;11.488;2022-08-19T02:39:55;94924.84;;;23.40;62.62
1029;BME280;503;48.120;11.488;2022-08-19T02:42:20;94919.00;;;23.52;62.55
1029;BME280;503;48.120;11.488;2022-08-19T02:44:46;94898.50;;;23.26;62.50
1029;BME280;503;48.120;11.488;2022-08-19T02:47:11;94882.25;;;22.37;65.21
1029;BME280;503;48.120;11.488;2022-08-19T02:49:38;94869.84;;;21.27;70.23
1029;BME280;503;48.120;11.488;2022-08-19T02:52:04;94865.69;;;20.34;74.59
1029;BME280;503;48.120;11.488;2022-08-19T02:54:29;94861.16;;;20.89;72.41
1029;BME280;503;48.120;11.488;2022-08-19T02:56:54;94866.13;;;20.84;73.34
1029;BME280;503;48.120;11.488;2022-08-19T02:59:20;94858.16;;;21.05;72.24
1029;BME280;503;48.120;11.488;2022-08-19T03:01:46;94860.38;;;20.89;73.15
1029;BME280;503;48.120;11.488;2022-08-19T03:04:14;94861.84;;;20.79;73.39
1029;BME280;503;48.120;11.488;2022-08-19T03:06:41;94857.09;;;21.27;71.34
1029;BME280;503;48.120;11.488;2022-08-19T03:09:08;94873.19;;;20.99;72.83
1029;BME280;503;48.120;11.488;2022-08-19T03:11:33;94884.34;;;21.63;70.71
1029;BME280;503;48.120;11.488;2022-08-19T03:14:00;94892.53;;;21.85;69.61
1029;BME280;503;48.120;11.488;2022-08-19T03:16:29;94888.81;;;22.18;68.41
1029;BME280;503;48.120;11.488;2022-08-19T03:18:56;94881.09;;;22.34;67.41
1029;BME280;503;48.120;11.488;2022-08-19T03:21:26;94871.28;;;21.87;68.85
1029;BME280;503;48.120;11.488;2022-08-19T03:23:56;94890.00;;;22.49;67.45
1029;BME280;503;48.120;11.488;2022-08-19T03:26:22;94909.75;;;22.81;66.89
1029;BME280;503;48.120;11.488;2022-08-19T03:28:47;94908.25;;;22.95;66.12
1029;BME280;503;48.120;11.488;2022-08-19T03:31:16;94916.75;;;23.15;65.12
1029;BME280;503;48.120;11.488;2022-08-19T03:33:42;94900.47;;;23.07;64.29
1029;BME280;503;48.120;11.488;2022-08-19T03:36:15;94905.88;;;23.22;64.09
1029;BME280;503;48.120;11.488;2022-08-19T03:38:43;94897.41;;;22.91;63.88
1029;BME280;503;48.120;11.488;2022-08-19T03:41:13;94899.69;;;22.64;64.89
1029;BME280;503;48.120;11.488;2022-08-19T03:43:40;94905.13;;;22.43;65.72
1029;BME280;503;48.120;11.488;2022-08-19T03:46:10;94898.53;;;22.62;65.72
1029;BME280;503;48.120;11.488;2022-08-19T03:48:38;94887.69;;;22.47;65.14
1029;BME280;503;48.120;11.488;2022-08-19T03:51:04;94892.34;;;22.68;64.48
1029;BME280;503;48.120;11.488;2022-08-19T03:53:31;94879.34;;;21.65;68.07
1029;BME280;503;48.120;11.488;2022-08-19T03:55:57;94904.94;;;21.86;68.04
1029;BME280;503;48.120;11.488;2022-08-19T03:58:26;94891.72;;;21.70;68.27
1029;BME280;503;48.120;11.488;2022-08-19T04:00:53;94882.22;;;22.12;67.36
1029;BME280;503;48.120;11.488;2022-08-19T04:03:18;94891.91;;;22.16;67.35
1029;BME280;503;48.120;11.488;2022-08-19T04:05:44;94859.63;;;21.68;67.84
1029;BME280;503;48.120;11.488;2022-08-19T04:08:09;94889.22;;;22.23;66.90
1029;BME280;503;48.120;11.488;2022-08-19T04:10:36;94876.06;;;22.33;66.22
1029;BME280;503;48.120;11.488;2022-08-19T04:13:03;94875.22;;;22.11;66.79
1029;BME280;503;48.120;11.488;2022-08-19T04:15:31;94874.88;;;22.19;67.05
1029;BME280;503;48.120;11.488;2022-08-19T04:18:01;94892.31;;;22.33;66.21
1029;BME280;503;48.120;11.488;2022-08-19T04:20:26;94889.31;;;21.47;69.49
1029;BME280;503;48.120;11.488;2022-08-19T04:22:52;94891.41;;;21.93;68.39
1029;BME280;503;48.120;11.488;2022-08-19T04:25:17;94858.91;;;21.86;67.84
1029;BME280;503;48.120;11.488;2022-08-19T04:27:42;94898.09;;;22.24;67.15
1029;BME280;503;48.120;11.488;2022-08-19T04:30:12;94882.22;;;22.26;66.21
1029;BME280;503;48.120;11.488;2022-08-19T04:32:37;94878.38;;;22.30;66.25
1029;BME280;503;48.120;11.488;2022-08-19T04:35:04;94913.66;;;22.63;65.58
1029;BME280;503;48.120;11.488;2022-08-19T04:37:30;94923.34;;;23.10;64.73
1029;BME280;503;48.120;11.488;2022-08-19T04:39:58;94900.84;;;23.17;63.91
1029;BME280;503;48.120;11.488;2022-08-19T04:42:42;94922.88;;;23.47;63.13
1029;BME280;503;48.120;11.488;2022-08-19T04:45:14;94900.78;;;23.52;62.61
1029;BME280;503;48.120;11.488;2022-08-19T04:47:42;94940.63;;;23.88;61.74
1029;BME280;503;48.120;11.488;2022-08-19T04:50:09;94933.66;;;23.83;61.43
1029;BME280;503;48.120;11.488;2022-08-19T04:52:38;94941.00;;;23.90;61.22
1029;BME280;503;48.120;11.488;2022-08-19T04:55:11;94944.09;;;23.99;61.19
1029;BME280;503;48.120;11.488;2022-08-19T04:57:36;94894.91;;;23.75;60.69
1029;BME280;503;48.120;11.488;2022-08-19T05:00:06;94911.13;;;23.93;60.57
1029;BME280;503;48.120;11.488;2022-08-19T05:02:32;94908.41;;;23.90;59.74
1029;BME280;503;48.120;11.488;2022-08-19T05:04:58;94959.91;;;24.18;59.97
1029;BME280;503;48.120;11.488;2022-08-19T05:07:26;94956.41;;;24.21;59.98
1029;BME280;503;48.120;11.488;2022-08-19T05:09:51;94939.03;;;24.01;59.96
1029;BME280;503;48.120;11.488;2022-08-19T05:12:17;94964.56;;;24.21;59.97
1029;BME280;503;48.120;11.488;2022-08-19T05:14:43;94958.31;;;24.31;59.74
1029;BME280;503;48.120;11.488;2022-08-19T05:17:10;94933.53;;;24.15;59.57
1029;BME280;503;48.120;11.488;2022-08-19T05:19:35;94928.47;;;24.17;59.93
1029;BME280;503;48.120;11.488;2022-08-19T05:22:19;94945.09;;;24.30;59.85
1029;BME280;503;48.120;11.488;2022-08-19T05:25:02;94942.06;;;24.17;59.91
1029;BME280;503;48.120;11.488;2022-08-19T05:27:28;94938.94;;;24.19;59.92
1029;BME280;503;48.120;11.488;2022-08-19T05:29:53;94947.44;;;24.31;59.37
1029;BME280;503;48.120;11.488;2022-08-19T05:32:19;94896.28;;;24.12;59.21
1029;BME280;503;48.120;11.488;2022-08-19T05:34:44;94903.31;;;24.02;59.20
1029;BME280;503;48.120;11.488;2022-08-19T05:37:10;94896.28;;;24.08;59.34
1029;BME280;503;48.120;11.488;2022-08-19T05:39:37;94940.34;;;24.52;59.57
1029;BME280;503;48.120;11.488;2022-08-19T05:42:05;94882.22;;;24.24;59.27
1029;BME280;503;48.120;11.488;2022-08-19T05:44:34;94897.31;;;24.36;59.07
1029;BME280;503;48.120;11.488;2022-08-19T05:47:01;94903.44;;;24.51;58.54
1029;BME280;503;48.120;11.488;2022-08-19T05:49:28;94906.88;;;24.62;58.32
1029;BME280;503;48.120;11.488;2022-08-19T05:51:54;94903.41;;;24.58;58.34
1029;BME280;503;48.120;11.488;2022-08-19T05:54:21;94934.34;;;24.75;58.40
1029;BME280;503;48.120;11.488;2022-08-19T05:56:49;94929.25;;;24.84;57.97
1029;BME280;503;48.120;11.488;2022-08-19T05:59:16;94916.84;;;24.79;57.59
1029;BME280;503;48.120;11.488;2022-08-19T06:01:45;94910.28;;;24.73;57.75
1029;BME280;503;48.120;11.488;2022-08-19T06:04:11;94952.06;;;24.97;57.63
1029;BME280;503;48.120;11.488;2022-08-19T06:06:38;94943.88;;;25.01;57.22
1029;BME280;503;48.120;11.488;2022-08-19T06:09:05;94943.06;;;25.04;57.42
1029;BME280;503;48.120;11.488;2022-08-19T06:11:39;94898.19;;;24.78;57.45
1029;BME280;503;48.120;11.488;2022-08-19T06:14:08;94923.72;;;24.95;57.01
1029;BME280;503;48.120;11.488;2022-08-19T06:16:35;94911.88;;;24.67;56.74
1029;BME280;503;48.120;11.488;2022-08-19T06:19:03;94887.25;;;24.26;57.21
1029;BME280;503;48.120;11.488;2022-08-19T06:21:29;94927.19;;;24.47;57.47
1029;BME280;503;48.120;11.488;2022-08-19T06:24:08;94954.25;;;24.64;57.40
1029;BME280;503;48.120;11.488;2022-08-19T06:26:36;94937.56;;;24.59;57.74
1029;BME280;503;48.120;11.488;2022-08-19T06:29:04;94958.78;;;24.82;58.05
1029;BME280;503;48.120;11.488;2022-08-19T06:31:32;94944.47;;;24.74;57.65
1029;BME280;503;48.120;11.488;2022-08-19T06:34:00;94951.00;;;24.84;57.94
1029;BME280;503;48.120;11.488;2022-08-19T06:36:30;94947.09;;;24.88;57.60
1029;BME280;503;48.120;11.488;2022-08-19T06:39:01;94913.03;;;24.66;57.77
1029;BME280;503;48.120;11.488;2022-08-19T06:41:28;94937.50;;;24.70;58.05
1029;BME280;503;48.120;11.488;2022-08-19T06:43:54;94930.09;;;24.70;58.33
1029;BME280;503;48.120;11.488;2022-08-19T06:46:21;94959.44;;;24.97;58.07
1029;BME280;503;48.120;11.488;2022-08-19T06:48:50;94901.03;;;24.60;57.84
1029;BME280;503;48.120;11.488;2022-08-19T06:51:18;94936.72;;;24.69;57.91
1029;BME280;503;48.120;11.488;2022-08-19T06:53:51;94924.41;;;24.54;58.42
1029;BME280;503;48.120;11.488;2022-08-19T06:56:20;94940.59;;;24.72;58.78
1029;BME280;503;48.120;11.488;2022-08-19T06:58:47;94919.31;;;24.56;58.41
1029;BME280;503;48.120;11.488;2022-08-19T07:01:16;94914.31;;;24.51;58.77
1029;BME280;503;48.120;11.488;2022-08-19T07:03:42;94898.13;;;24.29;59.02
1029;BME280;503;48.120;11.488;2022-08-19T07:06:11;94952.84;;;24.42;59.59
1029;BME280;503;48.120;11.488;2022-08-19T07:08:38;94944.88;;;23.96;61.25
1029;BME280;503;48.120;11.488;2022-08-19T07:11:07;94939.53;;;23.71;62.29
1029;BME280;503;48.120;11.488;2022-08-19T07:13:33;94924.84;;;23.32;63.11
1029;BME280;503;48.120;11.488;2022-08-19T07:16:07;94876.41;;;23.27;62.30
1029;BME280;503;48.120;11.488;2022-08-19T07:18:33;94875.69;;;22.95;62.76
1029;BME280;503;48.120;11.488;2022-08-19T07:21:14;94924.84;;;23.32;63.66
1029;BME280;503;48.120;11.488;2022-08-19T07:23:41;94919.06;;;23.34;64.32
1029;BME280;503;48.120;11.488;2022-08-19T07:26:22;94911.63;;;23.56;63.60
1029;BME280;503;48.120;11.488;2022-08-19T07:28:48;94884.16;;;23.18;63.81
1029;BME280;503;48.120;11.488;2022-08-19T07:31:18;94896.59;;;22.83;65.47
1029;BME280;503;48.120;11.488;2022-08-19T07:33:44;94888.72;;;22.00;68.02
1029;BME280;503;48.120;11.488;2022-08-19T07:36:12;94872.00;;;21.69;69.26
1029;BME280;503;48.120;11.488;2022-08-19T07:38:41;94887.91;;;21.89;69.69
1029;BME280;503;48.120;11.488;2022-08-19T07:41:09;94894.28;;;22.86;66.89
1029;BME280;503;48.120;11.488;2022-08-19T07:43:35;94901.97;;;23.33;64.58
1029;BME280;503;48.120;11.488;2022-08-19T07:46:01;94889.91;;;23.63;63.12
1029;BME280;503;48.120;11.488;2022-08-19T07:48:27;94928.00;;;24.29;61.01
1029;BME280;503;48.120;11.488;2022-08-19T07:50:56;94913.47;;;23.84;62.34
1029;BME280;503;48.120;11.488;2022-08-19T07:53:24;94932.28;;;24.30;60.89
1029;BME280;503;48.120;11.488;2022-08-19T07:55:50;94910.94;;;23.20;63.20
1029;BME280;503;48.120;11.488;2022-08-19T07:58:18;94933.50;;;24.19;61.00
1029;BME280;503;48.120;11.488;2022-08-19T08:00:47;94935.50;;;24.07;61.18
1029;BME280;503;48.120;11.488;2022-08-19T08:03:14;94936.13;;;23.34;63.51
1029;BME280;503;48.120;11.488;2022-08-19T08:05:41;94926.81;;;23.35;64.35
1029;BME280;503;48.120;11.488;2022-08-19T08:08:25;94924.88;;;22.79;65.40
1029;BME280;503;48.120;11.488;2022-08-19T08:11:09;94924.47;;;23.38;63.65
1029;BME280;503;48.120;11.488;2022-08-19T08:13:35;94915.97;;;23.25;64.06
1029;BME280;503;48.120;11.488;2022-08-19T08:16:01;94915.94;;;23.39;63.12
1029;BME280;503;48.120;11.488;2022-08-19T08:18:27;94913.63;;;23.23;63.45
1029;BME280;503;48.120;11.488;2022-08-19T08:20:52;94926.41;;;23.26;64.30
1029;BME280;503;48.120;11.488;2022-08-19T08:23:18;94936.84;;;23.42;64.13
1029;BME280;503;48.120;11.488;2022-08-19T08:25:56;94929.91;;;22.77;66.32
1029;BME280;503;48.120;11.488;2022-08-19T08:28:23;94875.69;;;23.09;64.73
1029;BME280;503;48.120;11.488;2022-08-19T08:30:49;94938.88;;;22.88;65.16
1029;BME280;503;48.120;11.488;2022-08-19T08:33:23;94940.72;;;22.38;67.50
1029;BME280;503;48.120;11.488;2022-08-19T08:35:49;94914.41;;;22.49;67.23
1029;BME280;503;48.120;11.488;2022-08-19T08:38:15;94950.84;;;22.98;65.97
1029;BME280;503;48.120;11.488;2022-08-19T08:40:47;94945.38;;;23.66;64.61
1029;BME280;503;48.120;11.488;2022-08-19T08:43:30;94944.59;;;23.51;63.44
1029;BME280;503;48.120;11.488;2022-08-19T08:46:07;94953.84;;;23.75;62.46
1029;BME280;503;48.120;11.488;2022-08-19T08:48:42;94969.34;;;23.89;62.54
1029;BME280;503;48.120;11.488;2022-08-19T08:51:18;94936.72;;;23.96;61.67
1029;BME280;503;48.120;11.488;2022-08-19T08:53:47;94971.09;;;24.31;61.60
1029;BME280;503;48.120;11.488;2022-08-19T08:56:14;94938.94;;;24.22;61.51
1029;BME280;503;48.120;11.488;2022-08-19T09:01:17;94974.81;;;24.66;61.43
1029;BME280;503;48.120;11.488;2022-08-19T09:03:43;94983.75;;;24.66;61.25
1029;BME280;503;48.120;11.488;2022-08-19T09:17:08;94984.34;;;24.95;59.49
1029;BME280;503;48.120;11.488;2022-08-19T09:19:57;94985.44;;;25.01;59.39
1029;BME280;503;48.120;11.488;2022-08-19T09:22:20;94947.88;;;24.85;59.73
1029;BME280;503;48.120;11.488;2022-08-19T09:24:50;94979.28;;;24.27;62.05
1029;BME280;503;48.120;11.488;2022-08-19T09:27:17;94959.28;;;23.78;67.14
1029;BME280;503;48.120;11.488;2022-08-19T09:29:43;94947.56;;;24.03;69.06
1029;BME280;503;48.120;11.488;2022-08-19T09:32:08;94938.53;;;24.27;70.06
1029;BME280;503;48.120;11.488;2022-08-19T09:34:33;94945.44;;;24.43;68.63
1029;BME280;503;48.120;11.488;2022-08-19T09:36:59;94946.94;;;23.38;67.07
1029;BME280;503;48.120;11.488;2022-08-19T09:39:26;94950.38;;;23.81;69.06
1029;BME280;503;48.120;11.488;2022-08-19T09:41:52;94970.69;;;24.40;70.25
1029;BME280;503;48.120;11.488;2022-08-19T09:44:18;94960.41;;;24.72;69.64
1029;BME280;503;48.120;11.488;2022-08-19T09:46:45;94973.00;;;25.04;68.68
1029;BME280;503;48.120;11.488;2022-08-19T09:49:16;94921.78;;;23.16;66.30
1029;BME280;503;48.120;11.488;2022-08-19T09:51:49;94985.75;;;23.24;68.47
1029;BME280;503;48.120;11.488;2022-08-19T09:54:15;94968.31;;;23.00;69.17
1029;BME280;503;48.120;11.488;2022-08-19T09:56:40;94949.63;;;23.63;69.86
1029;BME280;503;48.120;11.488;2022-08-19T09:59:06;94951.56;;;23.52;69.09
1029;BME280;503;48.120;11.488;2022-08-19T10:01:32;94962.56;;;24.32;70.22
1029;BME280;503;48.120;11.488;2022-08-19T10:03:59;94939.94;;;24.53;67.12
1029;BME280;503;48.120;11.488;2022-08-19T10:06:28;94989.31;;;25.07;67.52
1029;BME280;503;48.120;11.488;2022-08-19T10:08:59;94995.34;;;25.33;65.65
1029;BME280;503;48.120;11.488;2022-08-19T10:11:25;94981.66;;;25.40;65.37
1029;BME280;503;48.120;11.488;2022-08-19T10:13:51;94988.56;;;25.52;63.29
1029;BME280;503;48.120;11.488;2022-08-19T10:16:19;94945.75;;;24.55;62.82
1029;BME280;503;48.120;11.488;2022-08-19T10:18:47;94965.34;;;24.18;64.81
1029;BME280;503;48.120;11.488;2022-08-19T10:21:19;94935.66;;;23.61;65.89
1029;BME280;503;48.120;11.488;2022-08-19T10:23:46;94932.78;;;24.07;64.61
1029;BME280;503;48.120;11.488;2022-08-19T10:26:17;94916.38;;;24.88;65.55
1029;BME280;503;48.120;11.488;2022-08-19T10:28:43;94931.56;;;24.82;64.16
1029;BME280;503;48.120;11.488;2022-08-19T10:31:13;94971.22;;;25.76;61.28
1029;BME280;503;48.120;11.488;2022-08-19T10:33:40;94929.38;;;25.56;59.80
1029;BME280;503;48.120;11.488;2022-08-19T10:36:09;94936.31;;;24.71;63.04
1029;BME280;503;48.120;11.488;2022-08-19T10:38:35;94923.63;;;25.50;60.84
1029;BME280;503;48.120;11.488;2022-08-19T10:41:12;94938.50;;;25.38;60.32
1029;BME280;503;48.120;11.488;2022-08-19T10:43:40;94917.34;;;27.03;58.08
1029;BME280;503;48.120;11.488;2022-08-19T10:46:12;94948.13;;;26.18;56.76
1029;BME280;503;48.120;11.488;2022-08-19T10:48:37;94956.84;;;25.72;58.28
1029;BME280;503;48.120;11.488;2022-08-19T10:51:03;94961.84;;;25.39;60.98
1029;BME280;503;48.120;11.488;2022-08-19T10:53:47;94960.00;;;23.93;63.73
1029;BME280;503;48.120;11.488;2022-08-19T10:56:13;94895.88;;;24.76;59.68
1029;BME280;503;48.120;11.488;2022-08-19T10:58:57;94953.81;;;23.89;64.36
1029;BME280;503;48.120;11.488;2022-08-19T11:01:25;94934.50;;;24.53;64.20
1029;BME280;503;48.120;11.488;2022-08-19T11:03:50;94927.66;;;25.35;60.07
1029;BME280;503;48.120;11.488;2022-08-19T11:06:16;94922.00;;;23.90;62.21
1029;BME280;503;48.120;11.488;2022-08-19T11:08:41;94955.41;;;24.67;62.56
1029;BME280;503;48.120;11.488;2022-08-19T11:11:08;94952.78;;;24.53;62.20
1029;BME280;503;48.120;11.488;2022-08-19T11:13:37;94929.00;;;23.91;63.13
1029;BME280;503;48.120;11.488;2022-08-19T11:16:15;94919.84;;;23.06;64.09
1029;BME280;503;48.120;11.488;2022-08-19T11:18:43;94921.78;;;22.77;66.59
1029;BME280;503;48.120;11.488;2022-08-19T11:21:20;94967.91;;;23.02;66.79
1029;BME280;503;48.120;11.488;2022-08-19T11:23:48;94937.25;;;22.44;68.11
1029;BME280;503;48.120;11.488;2022-08-19T11:26:14;94929.16;;;22.73;65.42
1029;BME280;503;48.120;11.488;2022-08-19T11:28:41;94930.09;;;21.90;67.52
1029;BME280;503;48.120;11.488;2022-08-19T11:31:13;94919.06;;;22.70;66.42
1029;BME280;503;48.120;11.488;2022-08-19T11:33:40;94939.06;;;23.97;63.60
1029;BME280;503;48.120;11.488;2022-08-19T11:36:06;94920.56;;;23.49;64.58
1029;BME280;503;48.120;11.488;2022-08-19T11:38:32;94923.38;;;24.26;63.29
1029;BME280;503;48.120;11.488;2022-08-19T11:41:00;94969.38;;;24.69;62.66
1029;BME280;503;48.120;11.488;2022-08-19T11:43:27;94930.19;;;25.53;58.14
1029;BME280;503;48.120;11.488;2022-08-19T11:45:54;94971.38;;;24.58;61.33
1029;BME280;503;48.120;11.488;2022-08-19T11:48:21;94962.31;;;24.79;60.40
1029;BME280;503;48.120;11.488;2022-08-19T11:50:48;94942.41;;;24.89;60.14
1029;BME280;503;48.120;11.488;2022-08-19T11:53:14;94956.88;;;24.79;59.80
1029;BME280;503;48.120;11.488;2022-08-19T11:55:40;94948.97;;;24.32;61.14
1029;BME280;503;48.120;11.488;2022-08-19T11:58:05;94960.13;;;23.32;63.64
1029;BME280;503;48.120;11.488;2022-08-19T12:00:33;94967.41;;;23.93;63.50
1029;BME280;503;48.120;11.488;2022-08-19T12:03:00;94961.28;;;23.46;63.25
1029;BME280;503;48.120;11.488;2022-08-19T12:05:26;94961.72;;;23.19;65.29
1029;BME280;503;48.120;11.488;2022-08-19T12:07:51;94955.84;;;23.64;63.63
1029;BME280;503;48.120;11.488;2022-08-19T12:10:16;94961.34;;;23.14;63.25
1029;BME280;503;48.120;11.488;2022-08-19T12:12:42;94979.88;;;23.44;64.50
1029;BME280;503;48.120;11.488;2022-08-19T12:15:08;94920.56;;;22.35;66.98
1029;BME280;503;48.120;11.488;2022-08-19T12:17:35;94950.09;;;23.12;65.46
1029;BME280;503;48.120;11.488;2022-08-19T12:20:01;94981.84;;;23.22;65.64
1029;BME280;503;48.120;11.488;2022-08-19T12:22:27;94976.81;;;23.27;65.13
1029;BME280;503;48.120;11.488;2022-08-19T12:24:53;94980.72;;;23.08;64.89
1029;BME280;503;48.120;11.488;2022-08-19T12:27:20;94968.41;;;24.27;61.34
1029;BME280;503;48.120;11.488;2022-08-19T12:29:45;94994.50;;;24.07;61.36
1029;BME280;503;48.120;11.488;2022-08-19T12:32:11;94941.75;;;24.74;59.59
1029;BME280;503;48.120;11.488;2022-08-19T12:34:36;94935.44;;;25.33;56.98
1029;BME280;503;48.120;11.488;2022-08-19T12:37:04;94952.75;;;25.12;56.83
1029;BME280;503;48.120;11.488;2022-08-19T12:39:30;94943.56;;;24.25;60.17
1029;BME280;503;48.120;11.488;2022-08-19T12:41:56;94964.59;;;24.10;60.26
1029;BME280;503;48.120;11.488;2022-08-19T12:44:22;94964.16;;;24.26;59.89
1029;BME280;503;48.120;11.488;2022-08-19T12:46:48;95002.06;;;24.62;59.86
1029;BME280;503;48.120;11.488;2022-08-19T12:49:14;94953.53;;;23.33;62.79
1029;BME280;503;48.120;11.488;2022-08-19T12:51:41;94997.50;;;25.04;59.17
1029;BME280;503;48.120;11.488;2022-08-19T12:54:06;94995.28;;;24.07;60.93
1029;BME280;503;48.120;11.488;2022-08-19T12:56:31;95008.38;;;25.56;57.94
1029;BME280;503;48.120;11.488;2022-08-19T12:59:01;94984.41;;;25.36;55.59
1029;BME280;503;48.120;11.488;2022-08-19T13:01:28;94978.59;;;24.05;59.32
1029;BME280;503;48.120;11.488;2022-08-19T13:03:58;95004.94;;;24.23;59.55
1029;BME280;503;48.120;11.488;2022-08-19T13:06:24;94969.09;;;24.49;58.58
1029;BME280;503;48.120;11.488;2022-08-19T13:08:49;94997.22;;;26.18;54.76
1029;BME280;503;48.120;11.488;2022-08-19T13:11:18;94997.19;;;24.10;59.01
1029;BME280;503;48.120;11.488;2022-08-19T13:13:45;95002.28;;;24.05;60.34
1029;BME280;503;48.120;11.488;2022-08-19T13:16:12;94959.28;;;23.85;59.31
1029;BME280;503;48.120;11.488;2022-08-19T13:18:39;94935.97;;;23.88;59.23
1029;BME280;503;48.120;11.488;2022-08-19T13:21:07;95003.75;;;24.24;60.26
1029;BME280;503;48.120;11.488;2022-08-19T13:23:34;94967.25;;;24.95;57.30
1029;BME280;503;48.120;11.488;2022-08-19T13:26:04;94953.88;;;23.71;60.35
1029;BME280;503;48.120;11.488;2022-08-19T13:28:30;94960.53;;;24.51;58.76
1029;BME280;503;48.120;11.488;2022-08-19T13:31:21;94952.34;;;23.63;60.98
1029;BME280;503;48.120;11.488;2022-08-19T13:34:05;94978.75;;;23.41;63.16
1029;BME280;503;48.120;11.488;2022-08-19T13:36:32;94949.69;;;23.34;62.76
1029;BME280;503;48.120;11.488;2022-08-19T13:38:58;94973.81;;;24.42;60.07